Time;durP1;ratioP1;P1;durP2;ratioP2;P2;SDS_P1;SDS_P2;PMS_P1;PMS_P2;Temp;Humidity;BMP_temperature;BMP_pressure;BME280_temperature;BME280_humidity;BME280_pressure;Samples;Min_cycle;Max_cycle;Signal;HPM_P1;HPM_P2
2022/08/13 00:02:16;;;;;;;11.48;10.38;;;;;;;19.83;99.36;99849.31;4991891;28;20415;-78
2022/08/13 00:04:56;;;;;;;10.80;9.80;;;;;;;19.81;99.38;99843.34;5020381;28;20404;-78
2022/08/13 00:07:21;;;;;;;10.63;9.70;;;;;;;19.86;99.22;99866.75;5053644;28;20028;-78
2022/08/13 00:09:47;;;;;;;14.00;10.07;;;;;;;19.87;99.46;99868.41;5053665;28;20033;-78
2022/08/13 00:15:18;;;;;;;11.30;10.10;;;;;;;19.76;100.00;99852.59;5053487;28;20167;-78
2022/08/13 00:17:45;;;;;;;17.63;10.40;;;;;;;19.81;100.00;99866.28;5053547;28;20107;-78
2022/08/13 00:20:11;;;;;;;13.68;10.35;;;;;;;19.79;100.00;99858.47;5053475;28;20025;-78
2022/08/13 00:22:38;;;;;;;11.68;10.50;;;;;;;19.83;100.00;99862.53;5053003;28;20476;-78
2022/08/13 00:25:09;;;;;;;12.05;10.95;;;;;;;19.81;100.00;99848.63;5053594;28;20059;-78
2022/08/13 00:27:34;;;;;;;11.95;10.65;;;;;;;19.84;100.00;99852.78;5053543;28;20032;-78
2022/08/13 00:30:00;;;;;;;11.82;10.63;;;;;;;19.93;100.00;99857.31;5053379;28;20036;-78
2022/08/13 00:32:29;;;;;;;11.07;9.73;;;;;;;19.96;100.00;99865.00;5051969;28;20032;-78
2022/08/13 00:34:57;;;;;;;10.88;9.80;;;;;;;19.93;99.89;99857.31;5053163;28;20115;-78
2022/08/13 00:37:22;;;;;;;10.98;9.55;;;;;;;19.91;99.85;99857.47;5053121;28;20059;-78
2022/08/13 00:39:48;;;;;;;10.35;9.07;;;;;;;19.91;98.88;99848.69;5053262;28;20029;-78
2022/08/13 00:42:20;;;;;;;10.38;9.38;;;;;;;19.99;98.68;99874.50;5053280;28;20024;-78
2022/08/13 00:44:46;;;;;;;12.43;10.05;;;;;;;20.00;98.29;99870.88;5053049;28;20065;-78
2022/08/13 00:49:55;;;;;;;10.95;9.85;;;;;;;20.02;98.17;99864.53;5053261;28;20051;-78
2022/08/13 00:52:21;;;;;;;11.63;9.70;;;;;;;19.94;98.38;99853.75;5052771;28;20108;-78
2022/08/13 00:54:49;;;;;;;11.98;9.73;;;;;;;19.97;98.15;99860.56;5052908;28;20021;-78
2022/08/13 00:57:14;;;;;;;13.00;11.05;;;;;;;19.98;98.37;99865.75;5052718;28;20057;-78
2022/08/13 00:59:40;;;;;;;12.35;10.68;;;;;;;19.97;99.19;99871.13;5052484;28;20068;-78
2022/08/13 01:02:05;;;;;;;13.60;11.70;;;;;;;19.92;99.76;99874.16;5052688;28;20383;-78
2022/08/13 01:04:31;;;;;;;12.30;11.10;;;;;;;19.90;100.00;99876.09;5052269;28;20029;-78
2022/08/13 01:07:00;;;;;;;12.68;11.25;;;;;;;19.87;100.00;99873.69;5052303;28;20075;-78
2022/08/13 01:09:29;;;;;;;13.70;12.25;;;;;;;19.78;100.00;99864.72;5052386;28;20060;-78
2022/08/13 01:11:57;;;;;;;13.13;11.93;;;;;;;19.76;100.00;99860.50;5052522;28;20082;-78
2022/08/13 01:14:24;;;;;;;18.23;14.50;;;;;;;19.80;100.00;99872.50;5052205;28;20040;-78
2022/08/13 01:16:52;;;;;;;27.08;20.02;;;;;;;19.71;100.00;99863.53;5052154;28;20021;-78
2022/08/13 01:19:19;;;;;;;36.00;22.67;;;;;;;19.69;100.00;99865.47;5034586;28;20373;-78
2022/08/13 01:21:49;;;;;;;29.25;22.70;;;;;;;19.61;100.00;99844.94;5052200;28;20021;-78
2022/08/13 01:24:14;;;;;;;29.50;21.77;;;;;;;19.60;100.00;99851.19;5052282;28;20047;-78
2022/08/13 01:26:40;;;;;;;23.55;19.85;;;;;;;19.50;100.00;99847.56;5051770;28;20111;-78
2022/08/13 01:29:08;;;;;;;28.95;20.95;;;;;;;19.56;100.00;99852.38;5052156;28;20377;-78
2022/08/13 01:31:34;;;;;;;20.90;18.02;;;;;;;19.55;100.00;99847.19;5051835;28;20033;-78
2022/08/13 01:34:03;;;;;;;22.90;17.40;;;;;;;19.52;100.00;99828.97;5052220;28;20017;-78
2022/08/13 01:36:30;;;;;;;19.92;17.30;;;;;;;19.51;100.00;99824.63;5051664;28;20488;-78
2022/08/13 01:39:04;;;;;;;19.27;16.30;;;;;;;19.55;100.00;99836.63;5052090;28;20032;-78
2022/08/13 01:41:30;;;;;;;20.27;16.67;;;;;;;19.48;100.00;99831.03;5051748;28;20037;-78
2022/08/13 01:44:04;;;;;;;19.58;15.27;;;;;;;19.41;100.00;99837.75;5051563;28;20150;-78
2022/08/13 01:50:28;;;;;;;16.80;14.30;;;;;;;19.39;100.00;99832.59;5051856;28;20029;-78
2022/08/13 01:51:59;;;;;;;15.55;13.85;;;;;;;19.42;100.00;99827.09;5051791;28;20389;-78
2022/08/13 01:54:25;;;;;;;16.83;14.50;;;;;;;19.47;100.00;99825.84;5051363;28;20025;-77
2022/08/13 01:56:51;;;;;;;14.73;13.30;;;;;;;19.43;100.00;99827.94;5051898;28;20494;-78
2022/08/13 01:59:16;;;;;;;16.40;13.98;;;;;;;19.47;100.00;99829.34;5051947;28;20025;-78
2022/08/13 02:01:42;;;;;;;14.23;12.73;;;;;;;19.45;100.00;99823.34;5051737;28;20074;-78
2022/08/13 02:04:07;;;;;;;17.17;14.43;;;;;;;19.36;100.00;99814.34;5051961;28;20460;-78
2022/08/13 02:06:34;;;;;;;16.58;14.55;;;;;;;19.39;100.00;99827.31;5051487;28;20106;-78
2022/08/13 02:09:04;;;;;;;18.02;16.23;;;;;;;19.30;100.00;99814.00;5051613;28;20078;-78
2022/08/13 02:11:36;;;;;;;17.47;15.60;;;;;;;19.26;100.00;99805.50;5051423;28;20460;-78
2022/08/13 02:14:04;;;;;;;20.15;15.38;;;;;;;19.21;100.00;99805.00;5051806;28;20332;-78
2022/08/13 02:16:35;;;;;;;17.95;15.68;;;;;;;19.20;100.00;99809.47;5051588;28;20059;-78
2022/08/13 02:19:03;;;;;;;18.50;16.42;;;;;;;19.14;100.00;99801.22;5051683;28;20025;-78
2022/08/13 02:21:32;;;;;;;17.50;15.70;;;;;;;19.03;100.00;99790.66;5051270;28;20484;-78
2022/08/13 02:23:59;;;;;;;17.17;15.38;;;;;;;19.13;100.00;99810.06;5051706;28;20044;-78
2022/08/13 02:26:29;;;;;;;16.60;15.00;;;;;;;19.12;100.00;99805.75;5051607;28;20029;-78
2022/08/13 02:28:57;;;;;;;16.20;14.52;;;;;;;19.01;100.00;99785.50;5051630;28;20035;-78
2022/08/13 02:31:23;;;;;;;16.05;14.45;;;;;;;19.09;100.00;99798.09;5051292;28;20075;-78
2022/08/13 02:33:50;;;;;;;17.42;15.23;;;;;;;19.02;100.00;99799.53;5051474;28;20035;-78
2022/08/13 02:36:18;;;;;;;14.63;13.20;;;;;;;19.08;100.00;99799.88;5051644;28;20021;-78
2022/08/13 02:38:43;;;;;;;15.85;14.25;;;;;;;19.07;100.00;99794.72;5033527;28;20481;-78
2022/08/13 02:43:54;;;;;;;15.38;13.80;;;;;;;19.07;100.00;99795.56;5051503;28;20107;-78
2022/08/13 02:46:21;;;;;;;15.65;14.05;;;;;;;19.06;100.00;99785.13;5051305;28;20104;-78
2022/08/13 02:48:49;;;;;;;15.15;13.63;;;;;;;18.94;100.00;99774.56;5051610;28;20040;-78
2022/08/13 02:51:14;;;;;;;14.80;13.30;;;;;;;19.01;100.00;99790.78;5051538;28;20032;-78
2022/08/13 02:53:41;;;;;;;18.13;13.02;;;;;;;18.93;100.00;99772.91;5051100;28;20393;-78
2022/08/13 02:56:08;;;;;;;15.43;13.77;;;;;;;18.96;100.00;99792.91;5036695;28;20361;-78
2022/08/13 02:58:34;;;;;;;15.25;13.75;;;;;;;18.94;100.00;99779.03;5054887;28;20036;-78
2022/08/13 03:01:02;;;;;;;14.82;13.23;;;;;;;18.92;100.00;99783.59;5054900;28;20029;-78
2022/08/13 03:03:28;;;;;;;16.65;14.30;;;;;;;18.90;100.00;99781.06;5054967;28;20064;-78
2022/08/13 03:05:54;;;;;;;14.93;13.52;;;;;;;18.91;100.00;99782.72;5054926;28;20523;-78
2022/08/13 03:08:20;;;;;;;16.20;14.60;;;;;;;18.92;100.00;99786.25;5054953;28;20035;-78
2022/08/13 03:10:46;;;;;;;15.50;14.05;;;;;;;18.97;100.00;99785.88;5054684;28;20033;-78
2022/08/13 03:13:19;;;;;;;16.42;13.63;;;;;;;18.87;100.00;99777.81;5054769;28;20082;-78
2022/08/13 03:15:46;;;;;;;15.38;13.85;;;;;;;18.87;100.00;99783.94;5054607;28;20055;-78
2022/08/13 03:18:11;;;;;;;15.02;13.55;;;;;;;18.86;100.00;99779.63;5054935;28;20033;-78
2022/08/13 03:20:37;;;;;;;15.77;14.07;;;;;;;18.83;100.00;99774.56;5036798;28;20032;-78
2022/08/13 03:23:03;;;;;;;15.68;14.18;;;;;;;18.85;100.00;99775.31;5054664;28;20025;-78
2022/08/13 03:25:31;;;;;;;15.85;14.25;;;;;;;18.87;100.00;99783.94;5054368;28;20708;-78
2022/08/13 03:27:59;;;;;;;15.85;14.25;;;;;;;18.84;100.00;99773.66;5054357;28;20028;-78
2022/08/13 03:30:26;;;;;;;16.02;14.52;;;;;;;18.79;100.00;99775.78;5054547;28;20033;-78
2022/08/13 03:32:52;;;;;;;17.60;16.00;;;;;;;18.73;100.00;99763.09;5054793;28;20060;-78
2022/08/13 03:35:20;;;;;;;16.58;14.88;;;;;;;18.78;100.00;99774.09;5054345;28;20032;-78
2022/08/13 03:37:49;;;;;;;16.05;14.20;;;;;;;18.77;100.00;99774.25;5053991;28;20029;-78
2022/08/13 03:40:16;;;;;;;16.38;14.77;;;;;;;18.77;100.00;99779.53;5054565;28;20037;-78
2022/08/13 03:42:43;;;;;;;16.52;14.73;;;;;;;18.74;100.00;99770.03;5053928;28;20032;-78
2022/08/13 03:45:09;;;;;;;16.33;14.82;;;;;;;18.76;100.00;99775.22;5054317;28;20460;-78
2022/08/13 03:47:37;;;;;;;14.85;13.55;;;;;;;18.77;100.00;99775.06;5053861;28;20217;-78
2022/08/13 03:50:05;;;;;;;15.30;13.85;;;;;;;18.76;100.00;99764.66;5054211;28;20460;-78
2022/08/13 03:52:30;;;;;;;16.20;14.65;;;;;;;18.80;100.00;99774.84;5053638;28;20021;-78
2022/08/13 03:54:56;;;;;;;16.95;15.00;;;;;;;18.83;100.00;99779.03;5053989;28;20521;-78
2022/08/13 03:57:22;;;;;;;17.38;15.60;;;;;;;18.81;100.00;99773.03;5053766;28;20043;-78
2022/08/13 03:59:49;;;;;;;16.88;15.27;;;;;;;18.69;100.00;99758.97;5053834;28;20025;-78
2022/08/13 04:02:16;;;;;;;16.85;15.25;;;;;;;18.79;100.00;99778.41;5054001;28;20037;-78
2022/08/13 04:04:46;;;;;;;17.20;15.45;;;;;;;18.74;100.00;99766.56;5053526;28;20029;-78
2022/08/13 04:07:22;;;;;;;19.00;15.65;;;;;;;18.71;100.00;99772.94;5053651;28;20071;-78
2022/08/13 04:09:48;;;;;;;17.98;16.27;;;;;;;18.69;100.00;99770.41;5053450;28;20060;-78
2022/08/13 04:12:15;;;;;;;19.77;17.85;;;;;;;18.75;100.00;99781.41;5053901;28;20059;-78
2022/08/13 04:14:41;;;;;;;18.52;16.90;;;;;;;18.69;100.00;99775.66;5053479;28;20472;-78
2022/08/13 04:17:10;;;;;;;19.45;17.52;;;;;;;18.72;100.00;99774.59;5053480;28;20487;-78
2022/08/13 04:19:40;;;;;;;19.65;17.38;;;;;;;18.73;100.00;99773.63;5053339;28;20128;-78
2022/08/13 04:22:09;;;;;;;21.60;19.57;;;;;;;18.74;100.00;99777.94;5053388;28;20024;-78
2022/08/13 04:24:35;;;;;;;20.02;17.92;;;;;;;18.74;100.00;99769.19;5053480;28;20027;-78
2022/08/13 04:27:02;;;;;;;19.70;17.90;;;;;;;18.72;100.00;99761.41;5053784;28;20111;-78
2022/08/13 04:29:27;;;;;;;20.25;18.40;;;;;;;18.81;100.00;99768.59;5053477;28;20032;-78
2022/08/13 04:31:53;;;;;;;21.38;19.25;;;;;;;18.82;100.00;99759.72;5053177;28;20025;-78
2022/08/13 04:34:24;;;;;;;20.90;18.90;;;;;;;18.78;100.00;99742.44;5053313;28;20035;-78
2022/08/13 04:36:49;;;;;;;20.50;18.58;;;;;;;18.77;100.00;99738.13;5052862;28;20033;-78
2022/08/13 04:39:15;;;;;;;21.42;19.13;;;;;;;18.85;100.00;99748.94;5053517;28;20075;-78
2022/08/13 04:41:40;;;;;;;22.88;20.58;;;;;;;18.88;100.00;99748.69;5053096;28;20108;-78
2022/08/13 04:44:06;;;;;;;21.38;19.08;;;;;;;18.86;100.00;99753.22;5053045;28;20025;-78
2022/08/13 04:46:31;;;;;;;36.25;29.85;;;;;;;18.79;100.00;99743.28;5052868;28;20439;-78
2022/08/13 04:48:56;;;;;;;28.08;25.17;;;;;;;18.85;100.00;99762.13;5052958;28;20465;-78
2022/08/13 04:51:23;;;;;;;26.13;23.42;;;;;;;18.80;100.00;99748.47;5053082;28;20025;-78
2022/08/13 04:53:48;;;;;;;26.10;23.55;;;;;;;18.78;100.00;99746.88;5052692;28;20071;-78
2022/08/13 04:56:14;;;;;;;24.90;21.63;;;;;;;18.83;100.00;99757.91;5052853;28;20464;-78
2022/08/13 04:58:40;;;;;;;24.27;21.67;;;;;;;18.83;100.00;99755.28;5052642;28;20024;-78
2022/08/13 05:01:09;;;;;;;25.55;23.00;;;;;;;18.80;100.00;99743.19;5034862;28;20124;-78
2022/08/13 05:03:39;;;;;;;22.95;20.73;;;;;;;18.83;100.00;99750.81;5052512;28;20021;-78
2022/08/13 05:06:05;;;;;;;24.10;21.60;;;;;;;18.86;100.00;99758.50;5052576;28;20060;-79
2022/08/13 05:08:32;;;;;;;24.30;21.73;;;;;;;18.87;100.00;99757.53;5052909;28;20033;-78
2022/08/13 05:10:59;;;;;;;22.95;20.77;;;;;;;18.84;100.00;99754.34;5052674;28;20465;-78
2022/08/13 05:13:29;;;;;;;23.73;21.33;;;;;;;18.87;100.00;99751.44;5052582;28;20407;-78
2022/08/13 05:15:56;;;;;;;;;;;;;;;18.99;100.00;99768.09;5052680;28;20033;-78
2022/08/13 05:18:22;;;;;;;22.95;20.63;;;;;;;19.00;100.00;99761.84;5051870;28;19920;-78
2022/08/13 05:20:47;;;;;;;22.77;20.27;;;;;;;19.04;100.00;99768.56;5034423;28;20025;-78
2022/08/13 05:23:16;;;;;;;21.60;19.50;;;;;;;18.95;100.00;99752.50;5052419;28;20078;-78
2022/08/13 05:25:42;;;;;;;20.38;18.33;;;;;;;19.09;100.00;99769.06;5052105;28;20029;-78
2022/08/13 05:28:10;;;;;;;20.42;18.30;;;;;;;19.10;100.00;99762.81;5052311;28;20056;-78
2022/08/13 05:30:38;;;;;;;21.40;19.25;;;;;;;19.12;100.00;99756.44;5051961;28;20492;-78
2022/08/13 05:33:13;;;;;;;21.35;19.35;;;;;;;19.03;100.00;99749.25;5052054;28;20033;-78
2022/08/13 05:35:39;;;;;;;21.00;18.98;;;;;;;19.01;100.00;99745.06;5051988;28;20036;-78
2022/08/13 05:38:04;;;;;;;21.38;19.17;;;;;;;19.01;100.00;99747.72;5052229;28;20453;-78
2022/08/13 05:40:30;;;;;;;20.60;18.67;;;;;;;19.05;100.00;99754.44;5052098;28;20029;-78
2022/08/13 05:42:59;;;;;;;20.70;18.80;;;;;;;19.07;100.00;99755.13;5051846;28;20036;-78
2022/08/13 05:45:25;;;;;;;19.67;17.77;;;;;;;19.00;100.00;99752.13;5052052;28;20028;-78
2022/08/13 05:47:51;;;;;;;19.13;17.35;;;;;;;19.05;100.00;99755.25;5051747;28;20029;-78
2022/08/13 05:50:16;;;;;;;17.60;16.00;;;;;;;19.02;100.00;99750.22;5051944;28;20036;-78
2022/08/13 05:52:42;;;;;;;18.42;16.63;;;;;;;18.98;100.00;99754.06;5051632;28;20021;-78
2022/08/13 05:55:11;;;;;;;17.65;16.05;;;;;;;18.97;100.00;99759.47;5051999;28;20151;-78
2022/08/13 05:57:36;;;;;;;19.05;17.27;;;;;;;19.01;100.00;99758.28;5051761;28;20116;-78
2022/08/13 06:05:32;;;;;;;20.92;18.92;;;;;;;18.95;100.00;99754.31;5051600;28;20182;-78
2022/08/13 06:07:57;;;;;;;20.65;18.65;;;;;;;18.92;100.00;99744.00;5051573;28;20535;-78
2022/08/13 06:10:24;;;;;;;20.58;18.58;;;;;;;18.96;100.00;99753.34;5051730;28;20040;-78
2022/08/13 06:12:50;;;;;;;18.90;17.17;;;;;;;18.94;100.00;99745.53;5051415;28;20072;-78
2022/08/13 06:15:15;;;;;;;20.83;18.77;;;;;;;18.92;100.00;99736.94;5051787;28;20039;-78
2022/08/13 06:17:41;;;;;;;21.00;18.92;;;;;;;18.92;100.00;99744.84;5051596;28;20499;-78
2022/08/13 06:20:07;;;;;;;19.55;17.38;;;;;;;18.96;100.00;99745.41;5033835;28;20035;-78
2022/08/13 06:22:34;;;;;;;18.48;16.88;;;;;;;19.03;100.00;99754.53;5051578;28;20464;-78
2022/08/13 06:25:02;;;;;;;18.30;16.60;;;;;;;19.04;100.00;99750.09;5051358;28;20056;-78
2022/08/13 06:27:28;;;;;;;21.40;18.17;;;;;;;18.98;100.00;99740.88;5051541;28;20498;-78
2022/08/13 06:29:54;;;;;;;20.40;18.50;;;;;;;19.08;100.00;99747.06;5053269;28;20064;-78
2022/08/13 06:32:23;;;;;;;22.00;19.90;;;;;;;19.08;100.00;99738.31;5055684;28;20074;-78
2022/08/13 06:34:48;;;;;;;22.63;20.40;;;;;;;19.15;100.00;99740.34;5055541;28;20487;-78
2022/08/13 06:37:15;;;;;;;23.52;21.27;;;;;;;19.28;100.00;99734.91;5055388;28;20029;-78
2022/08/13 06:39:44;;;;;;;24.45;21.92;;;;;;;19.33;100.00;99745.09;5055091;28;20388;-78
2022/08/13 06:42:10;;;;;;;24.17;21.80;;;;;;;19.30;100.00;99740.91;5055523;28;20024;-78
2022/08/13 06:44:40;;;;;;;23.20;21.00;;;;;;;19.31;100.00;99726.75;5055448;28;20461;-78
2022/08/13 06:47:06;;;;;;;23.70;21.50;;;;;;;19.36;100.00;99729.84;5055360;28;20162;-78
2022/08/13 06:49:32;;;;;;;25.60;23.00;;;;;;;19.43;100.00;99736.31;5055468;28;20120;-78
2022/08/13 06:51:58;;;;;;;24.55;22.25;;;;;;;19.51;100.00;99732.19;5054925;28;20431;-78
2022/08/13 06:54:24;;;;;;;24.77;22.38;;;;;;;19.57;100.00;99750.19;5054964;28;20032;-78
2022/08/13 06:56:58;;;;;;;25.50;22.92;;;;;;;19.57;100.00;99751.00;5054733;28;20028;-78
2022/08/13 06:59:25;;;;;;;22.33;20.35;;;;;;;19.61;100.00;99755.13;5055117;28;20481;-78
2022/08/13 07:01:57;;;;;;;24.35;21.80;;;;;;;19.54;100.00;99745.13;5036879;28;20025;-78
2022/08/13 07:04:23;;;;;;;22.10;20.10;;;;;;;19.60;100.00;99747.28;5055267;28;20426;-78
2022/08/13 07:06:52;;;;;;;23.85;21.65;;;;;;;19.57;100.00;99740.44;5054831;28;20052;-78
2022/08/13 07:09:18;;;;;;;23.90;21.42;;;;;;;19.62;100.00;99750.66;5055423;28;20025;-78
2022/08/13 07:11:45;;;;;;;22.65;20.45;;;;;;;19.61;100.00;99749.84;5054834;28;20392;-78
2022/08/13 07:14:13;;;;;;;23.23;21.02;;;;;;;19.66;100.00;99755.56;5054900;28;20028;-78
2022/08/13 07:16:40;;;;;;;22.80;20.58;;;;;;;19.56;100.00;99756.44;5054530;28;20484;-78
2022/08/13 07:19:06;;;;;;;24.90;22.33;;;;;;;19.54;100.00;99750.44;5054677;28;20040;-78
2022/08/13 07:21:32;;;;;;;22.42;20.08;;;;;;;19.50;100.00;99747.19;5054549;28;20392;-78
2022/08/13 07:24:01;;;;;;;22.60;20.38;;;;;;;19.56;100.00;99740.59;5054417;28;20473;-78
2022/08/13 07:26:30;;;;;;;23.42;21.15;;;;;;;19.63;100.00;99747.06;5054600;28;20056;-78
2022/08/13 07:28:55;;;;;;;24.42;21.95;;;;;;;19.54;100.00;99739.84;5054252;28;20096;-78
2022/08/13 07:31:29;;;;;;;23.92;21.73;;;;;;;19.55;100.00;99742.41;5054553;28;20102;-78
2022/08/13 07:33:57;;;;;;;22.60;20.50;;;;;;;19.55;100.00;99733.59;5054093;28;20029;-78
2022/08/13 07:36:33;;;;;;;21.92;19.92;;;;;;;19.60;100.00;99739.38;5054595;28;20182;-78
2022/08/13 07:39:09;;;;;;;21.02;19.23;;;;;;;19.69;100.00;99742.09;5054121;28;20476;-78
2022/08/13 07:41:46;;;;;;;20.65;18.70;;;;;;;19.73;100.00;99747.16;5053815;28;20634;-78
2022/08/13 07:44:17;;;;;;;21.27;19.38;;;;;;;19.86;100.00;99748.63;5054215;28;20483;-78
2022/08/13 07:46:44;;;;;;;21.35;19.25;;;;;;;19.88;100.00;99748.50;5054164;28;20025;-78
2022/08/13 07:49:12;;;;;;;22.08;19.95;;;;;;;19.99;100.00;99751.09;5054279;28;20021;-78
2022/08/13 07:51:41;;;;;;;20.50;18.42;;;;;;;20.25;100.00;99758.63;5054176;28;20028;-78
2022/08/13 07:54:07;;;;;;;21.10;18.92;;;;;;;20.45;100.00;99755.09;5053700;28;20492;-78
2022/08/13 07:56:33;;;;;;;20.98;18.98;;;;;;;20.64;100.00;99752.56;5053984;28;20060;-78
2022/08/13 07:59:02;;;;;;;20.67;18.33;;;;;;;20.73;100.00;99744.78;5053577;28;20035;-78
2022/08/13 08:01:30;;;;;;;19.90;17.80;;;;;;;20.90;100.00;99752.97;5054045;28;20025;-78
2022/08/13 08:04:01;;;;;;;20.90;18.88;;;;;;;20.78;100.00;99753.19;5053664;28;20480;-78
2022/08/13 08:06:27;;;;;;;21.08;19.00;;;;;;;20.80;100.00;99751.22;5053548;28;20053;-78
2022/08/13 08:08:53;;;;;;;20.17;18.48;;;;;;;20.81;100.00;99737.03;5043146;28;20021;-78
2022/08/13 08:14:07;;;;;;;19.42;17.45;;;;;;;21.00;100.00;99747.69;5033768;28;20365;-78
2022/08/13 08:16:36;;;;;;;20.17;18.27;;;;;;;21.01;100.00;99765.22;5033751;28;20026;-78
2022/08/13 08:19:02;;;;;;;19.67;17.73;;;;;;;20.91;100.00;99756.44;5033411;28;20385;-78
2022/08/13 08:21:28;;;;;;;20.40;18.40;;;;;;;20.88;100.00;99759.34;5033643;28;20326;-78
2022/08/13 08:24:01;;;;;;;19.88;17.52;;;;;;;20.76;100.00;99760.41;5033152;28;20104;-78
2022/08/13 08:26:28;;;;;;;18.52;16.75;;;;;;;20.69;100.00;99762.78;5052066;28;20508;-78
2022/08/13 08:28:55;;;;;;;21.70;18.00;;;;;;;20.75;100.00;99770.16;5053363;28;20103;-78
2022/08/13 08:31:21;;;;;;;19.95;18.05;;;;;;;20.61;100.00;99749.38;5053392;28;20051;-78
2022/08/13 08:33:47;;;;;;;21.40;17.60;;;;;;;20.72;100.00;99770.44;5051362;28;20020;-78
2022/08/13 08:36:13;;;;;;;19.83;17.85;;;;;;;20.75;100.00;99767.53;5042717;28;20116;-78
2022/08/13 08:44:24;;;;;;;20.88;18.88;;;;;;;20.98;100.00;99776.09;5048271;28;20044;-78
2022/08/13 08:46:56;;;;;;;21.15;18.65;;;;;;;20.87;100.00;99768.25;5052801;28;20151;-78
2022/08/13 08:49:24;;;;;;;20.90;19.02;;;;;;;20.71;100.00;99774.06;5053170;28;20033;-78
2022/08/13 08:51:50;;;;;;;21.50;19.40;;;;;;;20.55;100.00;99779.00;5052165;28;20500;-78
2022/08/13 08:54:17;;;;;;;20.23;18.33;;;;;;;20.41;100.00;99775.69;5052849;28;20087;-78
2022/08/13 08:56:48;;;;;;;20.13;18.02;;;;;;;20.48;100.00;99791.03;5052797;28;20021;-78
2022/08/13 08:59:15;;;;;;;22.15;19.98;;;;;;;20.47;100.00;99787.53;5052778;28;20029;-78
2022/08/13 09:01:42;;;;;;;20.52;18.73;;;;;;;20.40;100.00;99781.97;5052670;28;20048;-78
2022/08/13 09:04:09;;;;;;;19.25;17.45;;;;;;;20.35;100.00;99781.53;5052430;28;20415;-78
2022/08/13 09:06:35;;;;;;;20.52;18.52;;;;;;;20.35;100.00;99783.31;5052555;28;20056;-78
2022/08/13 09:09:02;;;;;;;20.33;18.40;;;;;;;20.31;100.00;99777.47;5052399;28;20033;-78
2022/08/13 09:11:29;;;;;;;18.67;16.98;;;;;;;20.38;100.00;99788.34;5052301;28;20115;-78
2022/08/13 09:13:55;;;;;;;17.27;15.57;;;;;;;20.42;100.00;99785.31;5051662;28;20117;-78
2022/08/13 09:16:21;;;;;;;17.00;15.48;;;;;;;20.41;100.00;99766.91;5052098;28;20100;-78
2022/08/13 09:18:47;;;;;;;16.50;14.88;;;;;;;20.50;100.00;99776.75;5052231;28;20037;-78
2022/08/13 09:21:13;;;;;;;15.68;14.18;;;;;;;20.49;100.00;99767.13;5052379;28;20029;-78
2022/08/13 09:23:45;;;;;;;19.38;17.38;;;;;;;20.51;100.00;99759.88;5052331;28;20102;-78
2022/08/13 09:26:14;;;;;;;17.27;15.75;;;;;;;20.68;100.00;99761.06;5051992;28;20029;-78
2022/08/13 09:28:42;;;;;;;17.52;15.95;;;;;;;20.70;100.00;99747.72;5051681;28;20437;-78
2022/08/13 09:31:10;;;;;;;19.55;17.73;;;;;;;20.90;100.00;99758.25;5052150;28;20032;-78
2022/08/13 09:33:38;;;;;;;16.88;15.18;;;;;;;20.97;100.00;99766.47;5052314;28;20426;-79
2022/08/13 09:36:09;;;;;;;18.63;16.92;;;;;;;21.01;100.00;99761.75;5051910;28;20021;-78
2022/08/13 09:38:36;;;;;;;18.58;16.75;;;;;;;21.07;100.00;99764.72;5052353;28;20029;-78
2022/08/13 09:41:01;;;;;;;16.73;15.23;;;;;;;21.20;100.00;99769.75;5051941;28;20060;-78
2022/08/13 09:43:33;;;;;;;19.15;17.30;;;;;;;21.23;100.00;99764.16;5052166;28;20400;-78
2022/08/13 09:45:59;;;;;;;19.00;17.13;;;;;;;21.32;100.00;99768.69;5052014;28;20016;-78
2022/08/13 09:48:27;;;;;;;17.48;15.82;;;;;;;21.35;100.00;99764.91;5052007;28;20021;-78
2022/08/13 09:50:53;;;;;;;18.13;16.23;;;;;;;21.54;100.00;99756.16;5051788;28;20147;-78
2022/08/13 09:53:18;;;;;;;18.70;16.92;;;;;;;21.72;100.00;99761.59;5051875;28;20112;-78
2022/08/13 09:55:45;;;;;;;18.02;16.42;;;;;;;21.89;100.00;99760.88;5051672;28;20029;-78
2022/08/13 09:58:11;;;;;;;18.33;16.73;;;;;;;22.09;100.00;99748.44;5051763;28;20072;-78
2022/08/13 10:00:37;;;;;;;17.38;15.68;;;;;;;22.38;100.00;99765.16;5052010;28;20048;-78
2022/08/13 10:03:06;;;;;;;18.67;17.00;;;;;;;22.57;100.00;99758.94;5051510;28;20074;-78
2022/08/13 10:05:34;;;;;;;18.48;16.67;;;;;;;22.66;100.00;99755.38;5051624;28;20062;-78
2022/08/13 10:08:01;;;;;;;19.40;17.40;;;;;;;22.48;100.00;99746.53;5051337;28;20036;-78
2022/08/13 10:10:26;;;;;;;18.30;16.60;;;;;;;22.31;100.00;99769.34;5051712;28;20027;-78
2022/08/13 10:12:52;;;;;;;20.00;18.20;;;;;;;22.09;100.00;99765.19;5051662;28;20380;-78
2022/08/13 10:15:18;;;;;;;18.90;17.17;;;;;;;22.01;100.00;99756.25;5051702;28;20083;-78
2022/08/13 10:17:48;;;;;;;19.50;17.50;;;;;;;22.12;100.00;99769.34;5051894;28;20027;-78
2022/08/13 10:20:21;;;;;;;17.65;16.05;;;;;;;22.13;100.00;99763.94;5051509;28;20099;-78
2022/08/13 10:22:47;;;;;;;19.25;17.30;;;;;;;22.28;100.00;99760.84;5051488;28;20037;-78
2022/08/13 10:25:14;;;;;;;19.48;17.52;;;;;;;22.41;100.00;99770.16;5051555;28;20037;-78
2022/08/13 10:27:39;;;;;;;20.70;18.65;;;;;;;22.26;100.00;99765.47;5051723;28;20432;-78
2022/08/13 10:30:05;;;;;;;19.58;17.83;;;;;;;22.07;100.00;99769.78;5051413;28;20120;-78
2022/08/13 10:32:30;;;;;;;18.92;17.13;;;;;;;22.01;100.00;99783.63;5051523;28;20435;-78
2022/08/13 10:34:56;;;;;;;19.33;17.52;;;;;;;22.03;100.00;99783.47;5051564;28;20063;-78
2022/08/13 10:37:21;;;;;;;20.25;18.25;;;;;;;21.97;100.00;99773.44;5051340;28;20036;-77
2022/08/13 10:39:47;;;;;;;19.23;17.33;;;;;;;21.81;100.00;99758.94;5051480;28;20112;-78
2022/08/13 10:42:12;;;;;;;20.65;17.10;;;;;;;21.77;100.00;99773.44;5051689;28;20025;-78
2022/08/13 10:44:40;;;;;;;17.33;15.82;;;;;;;21.57;100.00;99756.69;5051656;28;20396;-78
2022/08/13 10:47:07;;;;;;;18.85;16.70;;;;;;;21.42;100.00;99750.97;5051193;28;20472;-78
2022/08/13 10:49:32;;;;;;;18.95;17.02;;;;;;;21.61;100.00;99759.91;5051422;28;20025;-78
2022/08/13 10:51:58;;;;;;;17.73;15.93;;;;;;;21.79;100.00;99754.75;5051017;28;20508;-78
2022/08/13 10:54:25;;;;;;;17.45;15.77;;;;;;;21.90;100.00;99728.91;5051586;28;20108;-78
2022/08/13 10:56:50;;;;;;;16.08;14.68;;;;;;;22.11;100.00;99738.50;5051367;28;20028;-78
2022/08/13 10:59:16;;;;;;;15.50;14.00;;;;;;;22.23;100.00;99728.59;5051135;28;20025;-78
2022/08/13 11:01:41;;;;;;;16.17;14.50;;;;;;;22.17;100.00;99724.72;5051425;28;20021;-78
2022/08/13 11:04:06;;;;;;;14.98;13.63;;;;;;;22.21;100.00;99731.41;5051074;28;20028;-78
2022/08/13 11:06:34;;;;;;;14.10;12.52;;;;;;;22.20;100.00;99731.53;5051492;28;20173;-78
2022/08/13 11:09:00;;;;;;;13.10;11.90;;;;;;;22.25;100.00;99727.50;5051131;28;20029;-78
2022/08/13 11:11:26;;;;;;;14.82;13.48;;;;;;;22.32;100.00;99723.25;5051351;28;20090;-78
2022/08/13 11:13:52;;;;;;;13.82;12.43;;;;;;;22.47;100.00;99720.16;5051246;28;20025;-78
2022/08/13 11:18:59;;;;;;;14.10;12.70;;;;;;;22.82;100.00;99716.75;5054413;28;20480;-78
2022/08/13 11:21:25;;;;;;;15.77;13.77;;;;;;;22.93;100.00;99716.59;5054809;28;20048;-78
2022/08/13 11:23:52;;;;;;;15.27;13.30;;;;;;;22.93;100.00;99721.91;5054727;28;20029;-79
2022/08/13 11:26:18;;;;;;;14.27;12.98;;;;;;;22.83;100.00;99713.94;5054375;28;20744;-78
2022/08/13 11:28:44;;;;;;;17.60;12.43;;;;;;;22.91;100.00;99697.28;5054550;28;20032;-78
2022/08/13 11:31:09;;;;;;;14.45;13.00;;;;;;;22.96;100.00;99710.97;5054280;28;20025;-78
2022/08/13 11:33:34;;;;;;;13.85;12.65;;;;;;;22.91;100.00;99716.72;5054416;28;20388;-78
2022/08/13 11:36:00;;;;;;;14.45;13.15;;;;;;;22.88;100.00;99705.53;5054275;28;20021;-78
2022/08/13 11:38:25;;;;;;;14.43;12.93;;;;;;;23.01;100.00;99700.75;5054843;28;20443;-78